createdAt,value
2023-01-29T00:00:52.414Z,11.65
2023-01-29T00:02:54.114Z,10.80
2023-01-29T00:04:58.903Z,10.73
2023-01-29T00:07:00.879Z,12.05
2023-01-29T00:09:02.473Z,10.85
2023-01-29T00:11:07.812Z,11.32
2023-01-29T00:13:09.419Z,10.93
2023-01-29T00:15:11.003Z,10.63
2023-01-29T00:17:12.590Z,10.38
2023-01-29T00:19:14.287Z,10.95
2023-01-29T00:21:18.152Z,10.18
2023-01-29T00:25:21.511Z,10.40
2023-01-29T00:27:23.074Z,9.93
2023-01-29T00:29:24.704Z,10.63
2023-01-29T00:31:26.431Z,9.52
2023-01-29T00:33:29.293Z,9.77
2023-01-29T00:35:31.406Z,10.38
2023-01-29T00:37:33.052Z,9.68
2023-01-29T00:39:47.508Z,9.50
2023-01-29T00:42:08.141Z,9.80
2023-01-29T00:44:27.946Z,10.30
2023-01-29T00:46:29.583Z,9.55
2023-01-29T00:48:31.172Z,8.45
2023-01-29T00:50:32.902Z,9.30
2023-01-29T00:52:36.452Z,9.20
2023-01-29T00:54:38.078Z,9.45
2023-01-29T00:56:39.928Z,10.25
2023-01-29T00:58:41.544Z,9.85
2023-01-29T01:00:43.189Z,10.23
2023-01-29T01:03:03.689Z,9.30
2023-01-29T01:05:07.779Z,10.02
2023-01-29T01:07:09.482Z,10.32
2023-01-29T01:09:30.094Z,9.40
2023-01-29T01:11:33.883Z,9.82
2023-01-29T01:15:39.109Z,8.73
2023-01-29T01:17:40.793Z,9.23
2023-01-29T01:19:42.375Z,10.18
2023-01-29T01:21:45.586Z,9.50
2023-01-29T01:23:47.809Z,9.77
2023-01-29T01:25:49.407Z,9.77
2023-01-29T01:30:00.406Z,8.95
2023-01-29T01:32:02.292Z,9.88
2023-01-29T01:34:04.100Z,9.18
2023-01-29T01:36:09.808Z,9.30
2023-01-29T01:38:11.575Z,10.43
2023-01-29T01:40:18.293Z,9.35
2023-01-29T01:42:20.398Z,10.02
2023-01-29T01:45:01.319Z,10.43
2023-01-29T01:47:02.962Z,9.93
2023-01-29T01:49:13.734Z,10.32
2023-01-29T01:51:16.807Z,10.23
2023-01-29T01:53:45.628Z,9.85
2023-01-29T01:55:53.786Z,10.23
2023-01-29T01:58:02.111Z,9.95
2023-01-29T02:00:13.078Z,8.60
2023-01-29T02:02:33.716Z,9.70
2023-01-29T02:04:53.845Z,9.75
2023-01-29T02:07:14.698Z,9.73
2023-01-29T02:09:35.701Z,10.00
2023-01-29T02:11:37.790Z,9.27
2023-01-29T02:13:40.327Z,9.55
2023-01-29T02:15:46.894Z,10.00
2023-01-29T02:17:48.612Z,9.40
2023-01-29T02:19:53.166Z,9.43
2023-01-29T02:21:57.567Z,9.70
2023-01-29T02:24:33.111Z,9.18
2023-01-29T02:26:46.579Z,9.93
2023-01-29T02:29:22.506Z,10.88
2023-01-29T02:31:35.407Z,9.57
2023-01-29T02:33:45.107Z,9.90
2023-01-29T02:35:56.411Z,9.32
2023-01-29T02:38:36.850Z,9.98
2023-01-29T02:41:04.499Z,9.65
2023-01-29T02:43:07.719Z,9.30
2023-01-29T02:45:23.098Z,9.95
2023-01-29T02:47:35.937Z,9.38
2023-01-29T02:49:49.083Z,9.55
2023-01-29T02:52:09.569Z,9.70
2023-01-29T02:54:21.878Z,9.30
2023-01-29T02:56:35.273Z,10.18
2023-01-29T02:58:41.689Z,10.03
2023-01-29T03:00:46.032Z,8.82
2023-01-29T03:03:01.204Z,9.73
2023-01-29T03:05:06.017Z,8.90
2023-01-29T03:07:10.755Z,8.93
2023-01-29T03:09:34.560Z,9.88
2023-01-29T03:11:41.495Z,8.80
2023-01-29T03:13:47.879Z,9.75
2023-01-29T03:15:56.958Z,8.77
2023-01-29T03:18:02.863Z,9.10
2023-01-29T03:20:08.321Z,8.50
2023-01-29T03:22:11.322Z,8.57
2023-01-29T03:24:32.696Z,9.03
2023-01-29T03:26:52.816Z,8.82
2023-01-29T03:29:12.942Z,9.00
2023-01-29T03:31:33.920Z,7.75
2023-01-29T03:33:59.876Z,8.23
2023-01-29T03:36:13.423Z,8.15
2023-01-29T03:38:16.031Z,7.50
2023-01-29T03:40:18.223Z,6.97
2023-01-29T03:42:31.319Z,7.43
2023-01-29T03:44:40.447Z,7.07
2023-01-29T03:46:53.179Z,7.00
2023-01-29T03:48:59.392Z,6.68
2023-01-29T03:51:02.638Z,6.68
2023-01-29T03:53:27.414Z,7.18
2023-01-29T03:57:54.613Z,7.60
2023-01-29T04:00:17.641Z,7.75
2023-01-29T04:02:35.347Z,7.80
2023-01-29T04:04:38.459Z,7.45
2023-01-29T04:06:42.177Z,6.90
2023-01-29T04:08:52.657Z,7.28
2023-01-29T04:10:57.551Z,6.30
2023-01-29T04:13:02.354Z,5.93
2023-01-29T04:15:06.265Z,6.55
2023-01-29T04:19:20.307Z,7.03
2023-01-29T04:21:22.123Z,6.43
2023-01-29T04:23:26.030Z,6.60
2023-01-29T04:28:00.112Z,6.43
2023-01-29T04:30:23.330Z,6.65
2023-01-29T04:32:31.290Z,6.55
2023-01-29T04:34:53.676Z,6.00
2023-01-29T04:37:16.990Z,6.13
2023-01-29T04:39:23.321Z,6.15
2023-01-29T04:41:30.633Z,5.72
2023-01-29T04:43:38.084Z,5.72
2023-01-29T04:45:45.520Z,6.32
2023-01-29T04:48:20.099Z,5.68
2023-01-29T04:50:35.870Z,6.10
2023-01-29T04:52:49.706Z,5.18
2023-01-29T04:54:51.342Z,6.63
2023-01-29T04:57:05.965Z,5.80
2023-01-29T04:59:11.907Z,6.63
2023-01-29T05:01:14.651Z,5.65
2023-01-29T05:03:16.647Z,6.15
2023-01-29T05:05:19.818Z,5.55
2023-01-29T05:07:22.538Z,6.32
2023-01-29T05:09:25.278Z,6.10
2023-01-29T05:11:26.902Z,5.32
2023-01-29T05:13:30.860Z,5.82
2023-01-29T05:17:37.587Z,5.35
2023-01-29T05:19:39.236Z,5.90
2023-01-29T05:21:43.814Z,5.32
2023-01-29T05:23:53.264Z,5.35
2023-01-29T05:25:56.764Z,5.80
2023-01-29T05:28:04.849Z,5.60
2023-01-29T05:30:07.123Z,6.15
2023-01-29T05:32:11.357Z,5.57
2023-01-29T05:34:13.031Z,6.00
2023-01-29T05:36:14.675Z,6.10
2023-01-29T05:38:17.694Z,5.90
2023-01-29T05:40:19.516Z,5.82
2023-01-29T05:42:21.276Z,5.68
2023-01-29T05:44:22.878Z,6.07
2023-01-29T05:46:24.657Z,6.03
2023-01-29T05:48:28.848Z,6.20
2023-01-29T05:50:30.450Z,6.60
2023-01-29T05:52:32.189Z,8.00
2023-01-29T05:54:33.814Z,6.40
2023-01-29T05:56:35.363Z,5.32
2023-01-29T05:58:37.024Z,5.38
2023-01-29T06:00:39.094Z,5.68
2023-01-29T06:02:40.951Z,6.45
2023-01-29T06:04:42.599Z,5.43
2023-01-29T06:06:46.958Z,5.70
2023-01-29T06:08:48.628Z,5.78
2023-01-29T06:10:50.191Z,6.13
2023-01-29T06:12:51.770Z,6.15
2023-01-29T06:14:53.361Z,6.00
2023-01-29T06:16:54.932Z,6.25
2023-01-29T06:18:56.872Z,6.75
2023-01-29T06:21:02.775Z,6.80
2023-01-29T06:23:04.409Z,7.28
2023-01-29T06:25:06.770Z,6.60
2023-01-29T06:27:08.363Z,7.22
2023-01-29T06:29:10.208Z,6.72
2023-01-29T06:31:27.403Z,6.57
2023-01-29T06:33:33.309Z,7.20
2023-01-29T06:35:34.966Z,7.55
2023-01-29T06:37:36.717Z,8.20
2023-01-29T06:39:38.400Z,7.88
2023-01-29T06:41:39.982Z,8.15
2023-01-29T06:43:44.480Z,7.35
2023-01-29T06:45:50.433Z,7.68
2023-01-29T06:47:52.162Z,7.85
2023-01-29T06:49:53.755Z,8.82
2023-01-29T06:51:55.411Z,8.15
2023-01-29T06:53:57.138Z,8.85
2023-01-29T06:55:58.772Z,8.95
2023-01-29T06:58:00.603Z,8.70
2023-01-29T07:00:02.260Z,8.60
2023-01-29T07:02:04.181Z,8.93
2023-01-29T07:04:05.871Z,8.27
2023-01-29T07:06:08.256Z,7.88
2023-01-29T07:08:09.851Z,8.00
2023-01-29T07:10:11.714Z,8.18
2023-01-29T07:12:13.333Z,9.20
2023-01-29T07:14:14.948Z,8.15
2023-01-29T07:16:16.669Z,8.50
2023-01-29T07:18:18.276Z,9.18
2023-01-29T07:20:19.934Z,8.10
2023-01-29T07:22:21.579Z,8.88
2023-01-29T07:24:23.294Z,9.10
2023-01-29T07:26:24.966Z,9.05
2023-01-29T07:28:26.619Z,9.32
2023-01-29T07:30:28.459Z,9.27
2023-01-29T07:32:30.131Z,9.20
2023-01-29T07:34:31.763Z,9.68
2023-01-29T07:36:33.397Z,9.65
2023-01-29T07:38:35.024Z,11.20
2023-01-29T07:40:36.899Z,9.90
2023-01-29T07:42:39.973Z,9.95
2023-01-29T07:44:41.637Z,8.77
2023-01-29T07:46:43.544Z,9.60
2023-01-29T07:48:45.132Z,9.55
2023-01-29T07:50:54.944Z,9.27
2023-01-29T07:52:56.937Z,9.50
2023-01-29T07:54:58.574Z,8.30
2023-01-29T07:57:00.179Z,9.38
2023-01-29T07:59:01.824Z,10.05
2023-01-29T08:01:07.772Z,10.38
2023-01-29T08:03:18.150Z,9.23
2023-01-29T08:05:20.175Z,9.60
2023-01-29T08:07:21.808Z,10.00
2023-01-29T08:09:23.404Z,10.52
2023-01-29T08:11:25.049Z,8.80
2023-01-29T08:13:26.642Z,11.20
2023-01-29T08:15:28.751Z,9.55
2023-01-29T08:17:30.320Z,10.10
2023-01-29T08:19:32.208Z,9.48
2023-01-29T08:21:33.782Z,10.02
2023-01-29T08:23:35.480Z,10.25
2023-01-29T08:25:37.160Z,10.07
2023-01-29T08:27:38.862Z,10.88
2023-01-29T08:29:40.486Z,10.10
2023-01-29T08:31:42.120Z,10.13
2023-01-29T08:33:43.795Z,8.52
2023-01-29T08:35:50.470Z,8.95
2023-01-29T08:37:59.552Z,9.00
2023-01-29T08:40:01.402Z,9.77
2023-01-29T08:42:03.003Z,10.15
2023-01-29T08:44:04.788Z,10.10
2023-01-29T08:46:07.421Z,9.88
2023-01-29T08:48:09.793Z,8.60
2023-01-29T08:50:11.734Z,9.10
2023-01-29T08:52:13.358Z,9.95
2023-01-29T08:54:14.957Z,9.32
2023-01-29T08:56:16.557Z,11.25
2023-01-29T08:58:18.249Z,9.43
2023-01-29T09:00:20.247Z,10.20
2023-01-29T09:02:21.900Z,10.77
2023-01-29T09:04:23.629Z,9.57
2023-01-29T09:06:25.204Z,9.10
2023-01-29T09:08:26.920Z,8.98
2023-01-29T09:10:28.527Z,11.25
2023-01-29T09:12:30.148Z,10.02
2023-01-29T09:14:32.887Z,9.65
2023-01-29T09:16:34.585Z,10.10
2023-01-29T09:18:36.454Z,9.48
2023-01-29T09:20:38.347Z,10.23
2023-01-29T09:22:40.015Z,11.40
2023-01-29T09:24:41.649Z,10.52
2023-01-29T09:26:43.291Z,11.00
2023-01-29T09:28:44.978Z,10.07
2023-01-29T09:30:47.031Z,10.30
2023-01-29T09:32:56.022Z,9.90
2023-01-29T09:34:57.859Z,11.05
2023-01-29T09:36:59.388Z,10.60
2023-01-29T09:39:00.977Z,11.10
2023-01-29T09:41:23.766Z,9.93
2023-01-29T09:43:32.305Z,9.73
2023-01-29T09:45:34.340Z,10.40
2023-01-29T09:47:36.784Z,11.05
2023-01-29T09:49:43.788Z,10.40
2023-01-29T09:51:50.353Z,10.60
2023-01-29T09:53:58.983Z,10.13
2023-01-29T09:56:13.271Z,10.48
2023-01-29T10:00:22.100Z,10.23
2023-01-29T10:02:38.754Z,11.77
2023-01-29T10:04:49.456Z,10.45
2023-01-29T10:07:19.814Z,12.23
2023-01-29T10:09:57.530Z,12.35
2023-01-29T10:12:20.897Z,12.45
2023-01-29T10:14:24.773Z,13.50
2023-01-29T10:19:06.130Z,11.98
2023-01-29T10:21:44.840Z,11.90
2023-01-29T10:23:52.140Z,12.23
2023-01-29T10:25:54.347Z,13.18
2023-01-29T10:27:58.511Z,13.30
2023-01-29T10:30:02.333Z,14.02
2023-01-29T10:32:06.111Z,15.90
2023-01-29T10:34:21.509Z,14.32
2023-01-29T10:36:28.092Z,13.18
2023-01-29T10:38:41.792Z,14.45
2023-01-29T10:40:56.767Z,13.90
2023-01-29T10:43:22.825Z,15.38
2023-01-29T10:45:32.513Z,12.85
2023-01-29T10:47:37.068Z,12.88
2023-01-29T10:50:00.002Z,13.38
2023-01-29T10:52:23.055Z,12.65
2023-01-29T10:54:34.545Z,13.63
2023-01-29T10:56:45.006Z,13.07
2023-01-29T10:58:52.487Z,13.20
2023-01-29T11:00:54.099Z,13.43
2023-01-29T11:02:55.857Z,13.23
2023-01-29T11:04:57.566Z,14.85
2023-01-29T11:06:59.693Z,14.60
2023-01-29T11:09:19.570Z,15.32
2023-01-29T11:11:22.861Z,14.52
2023-01-29T11:13:29.089Z,15.60
2023-01-29T11:15:33.879Z,15.63
2023-01-29T11:17:35.447Z,15.80
2023-01-29T11:19:37.045Z,16.35
2023-01-29T11:22:13.939Z,15.88
2023-01-29T11:24:17.345Z,15.27
2023-01-29T11:26:22.331Z,16.58
2023-01-29T11:28:40.334Z,18.23
2023-01-29T11:30:42.107Z,16.50
2023-01-29T11:32:43.805Z,16.27
2023-01-29T11:34:58.609Z,15.43
2023-01-29T11:37:16.768Z,13.80
2023-01-29T11:39:23.107Z,14.32
2023-01-29T11:41:25.549Z,14.27
2023-01-29T11:43:27.087Z,15.43
2023-01-29T11:45:32.368Z,16.15
2023-01-29T11:47:33.988Z,16.25
2023-01-29T11:49:35.961Z,15.02
2023-01-29T11:51:38.654Z,15.40
2023-01-29T11:53:45.550Z,14.60
2023-01-29T11:55:50.871Z,13.88
2023-01-29T11:58:07.925Z,14.15
2023-01-29T12:00:28.803Z,14.30
2023-01-29T12:02:37.516Z,14.07
2023-01-29T12:04:39.647Z,13.73
2023-01-29T12:06:44.290Z,13.70
2023-01-29T12:08:54.779Z,15.35
2023-01-29T12:11:09.239Z,14.07
2023-01-29T12:13:10.978Z,12.73
2023-01-29T12:15:18.524Z,13.65
2023-01-29T12:17:24.038Z,14.48
2023-01-29T12:19:36.274Z,12.75
2023-01-29T12:21:50.648Z,13.77
2023-01-29T12:24:02.390Z,14.05
2023-01-29T12:26:16.186Z,12.85
2023-01-29T12:28:34.766Z,14.13
2023-01-29T12:31:09.459Z,15.00
2023-01-29T12:33:39.929Z,17.30
2023-01-29T12:35:48.619Z,14.13
2023-01-29T12:38:19.055Z,12.90
2023-01-29T12:40:21.969Z,13.02
2023-01-29T12:42:24.637Z,13.60
2023-01-29T12:44:32.149Z,13.18
2023-01-29T12:46:39.177Z,14.10
2023-01-29T12:48:43.057Z,14.00
2023-01-29T12:52:56.186Z,12.35
2023-01-29T12:55:07.353Z,12.45
2023-01-29T12:57:15.685Z,13.73
2023-01-29T12:59:32.158Z,12.55
2023-01-29T13:01:37.333Z,14.07
2023-01-29T13:04:00.230Z,13.05
2023-01-29T13:06:16.045Z,12.90
2023-01-29T13:08:27.236Z,13.18
2023-01-29T13:10:34.281Z,12.63
2023-01-29T13:12:36.328Z,13.05
2023-01-29T13:15:06.493Z,14.07
2023-01-29T13:17:14.848Z,12.93
2023-01-29T13:19:28.221Z,12.63
2023-01-29T13:21:35.378Z,13.97
2023-01-29T13:23:47.144Z,12.52
2023-01-29T13:25:52.346Z,14.48
2023-01-29T13:27:53.991Z,16.42
2023-01-29T13:29:56.614Z,17.65
2023-01-29T13:32:00.451Z,17.83
2023-01-29T13:36:04.139Z,19.27
2023-01-29T13:38:06.439Z,18.73
2023-01-29T13:40:18.654Z,17.73
2023-01-29T13:42:23.976Z,21.40
2023-01-29T13:44:37.041Z,20.38
2023-01-29T13:46:40.730Z,23.05
2023-01-29T13:48:43.963Z,21.95
2023-01-29T13:50:45.859Z,19.85
2023-01-29T13:52:58.393Z,19.10
2023-01-29T13:55:02.081Z,19.65
2023-01-29T13:57:03.794Z,21.58
2023-01-29T13:59:06.341Z,20.63
2023-01-29T14:01:08.005Z,21.92
2023-01-29T14:03:11.762Z,21.67
2023-01-29T14:05:31.894Z,22.55
2023-01-29T14:07:45.774Z,21.67
2023-01-29T14:09:47.325Z,22.48
2023-01-29T14:11:49.000Z,20.27
2023-01-29T14:13:52.396Z,21.83
2023-01-29T14:15:57.136Z,20.20
2023-01-29T14:18:18.908Z,20.25
2023-01-29T14:20:25.775Z,20.70
2023-01-29T14:22:30.330Z,21.45
2023-01-29T14:24:31.981Z,20.45
2023-01-29T14:26:45.812Z,20.75
2023-01-29T14:29:06.740Z,22.13
2023-01-29T14:31:08.742Z,22.63
2023-01-29T14:33:36.607Z,23.70
2023-01-29T14:35:38.226Z,22.67
2023-01-29T14:37:41.138Z,22.15
2023-01-29T14:39:47.376Z,23.40
2023-01-29T14:41:50.916Z,21.45
2023-01-29T14:44:30.778Z,21.30
2023-01-29T14:46:35.405Z,21.25
2023-01-29T14:48:39.248Z,20.17
2023-01-29T14:50:44.079Z,20.27
2023-01-29T14:52:47.113Z,20.23
2023-01-29T14:54:48.925Z,19.92
2023-01-29T14:56:58.475Z,18.40
2023-01-29T14:59:13.180Z,19.00
2023-01-29T15:01:24.248Z,18.27
2023-01-29T15:03:44.980Z,17.50
2023-01-29T15:05:48.254Z,16.38
2023-01-29T15:07:58.819Z,17.60
2023-01-29T15:10:27.491Z,18.02
2023-01-29T15:12:53.032Z,16.52
2023-01-29T15:15:04.899Z,18.52
2023-01-29T15:17:09.579Z,18.20
2023-01-29T15:19:37.202Z,17.58
2023-01-29T15:21:38.958Z,18.27
2023-01-29T15:23:41.073Z,16.40
2023-01-29T15:25:50.093Z,16.63
2023-01-29T15:27:52.378Z,16.42
2023-01-29T15:30:03.199Z,17.08
2023-01-29T15:32:05.213Z,17.55
2023-01-29T15:34:07.812Z,17.95
2023-01-29T15:36:18.878Z,17.25
2023-01-29T15:38:26.540Z,16.73
2023-01-29T15:40:28.659Z,16.83
2023-01-29T15:42:43.874Z,16.52
2023-01-29T15:44:46.675Z,16.58
2023-01-29T15:46:54.001Z,16.65
2023-01-29T15:48:57.937Z,18.75
2023-01-29T15:53:04.463Z,22.80
2023-01-29T15:55:07.319Z,22.65
2023-01-29T15:57:17.465Z,21.88
2023-01-29T15:59:25.364Z,23.38
2023-01-29T16:01:28.103Z,26.08
2023-01-29T16:03:32.463Z,27.52
2023-01-29T16:05:34.223Z,25.25
2023-01-29T16:07:36.155Z,26.45
2023-01-29T16:09:38.116Z,26.55
2023-01-29T16:11:40.451Z,27.13
2023-01-29T16:13:44.221Z,28.80
2023-01-29T16:16:00.429Z,27.55
2023-01-29T16:18:05.302Z,24.17
2023-01-29T16:20:20.435Z,21.08
2023-01-29T16:22:22.026Z,24.25
2023-01-29T16:24:25.061Z,23.00
2023-01-29T16:26:29.411Z,22.95
2023-01-29T16:28:31.624Z,21.80
2023-01-29T16:30:33.464Z,22.85
2023-01-29T16:32:35.496Z,24.70
2023-01-29T16:34:50.063Z,24.13
2023-01-29T16:36:53.501Z,21.67
2023-01-29T16:39:01.132Z,23.65
2023-01-29T16:41:16.584Z,24.30
2023-01-29T16:43:18.181Z,27.05
2023-01-29T16:45:28.887Z,26.27
2023-01-29T16:47:34.516Z,24.60
2023-01-29T16:49:39.166Z,23.20
2023-01-29T16:51:40.864Z,26.33
2023-01-29T16:53:55.435Z,22.92
2023-01-29T16:56:02.274Z,24.85
2023-01-29T16:58:12.863Z,20.92
2023-01-29T17:00:26.976Z,21.40
2023-01-29T17:02:33.287Z,18.25
2023-01-29T17:04:34.867Z,19.67
2023-01-29T17:06:37.009Z,19.25
2023-01-29T17:08:39.087Z,18.02
2023-01-29T17:10:47.242Z,16.95
2023-01-29T17:12:54.802Z,16.50
2023-01-29T17:15:31.622Z,18.88
2023-01-29T17:17:36.163Z,16.50
2023-01-29T17:19:37.753Z,16.52
2023-01-29T17:21:39.615Z,15.50
2023-01-29T17:23:41.253Z,16.80
2023-01-29T17:25:42.903Z,15.65
2023-01-29T17:27:51.460Z,15.77
2023-01-29T17:29:53.689Z,15.82
2023-01-29T17:31:56.131Z,18.73
2023-01-29T17:33:57.811Z,19.70
2023-01-29T17:35:59.745Z,22.13
2023-01-29T17:38:01.367Z,16.52
2023-01-29T17:40:05.244Z,14.90
2023-01-29T17:42:12.048Z,15.95
2023-01-29T17:44:13.817Z,16.25
2023-01-29T17:46:17.110Z,16.88
2023-01-29T17:48:25.664Z,22.23
2023-01-29T17:50:29.526Z,20.65
2023-01-29T17:54:33.853Z,23.00
2023-01-29T17:56:35.533Z,24.38
2023-01-29T17:58:37.229Z,22.70
2023-01-29T18:00:38.844Z,22.65
2023-01-29T18:02:40.432Z,24.67
2023-01-29T18:04:42.045Z,23.60
2023-01-29T18:06:45.513Z,24.63
2023-01-29T18:08:47.148Z,25.02
2023-01-29T18:10:48.780Z,25.30
2023-01-29T18:12:50.694Z,25.92
2023-01-29T18:14:52.658Z,26.85
2023-01-29T18:16:57.152Z,24.65
2023-01-29T18:18:58.951Z,22.92
2023-01-29T18:21:00.551Z,23.08
2023-01-29T18:23:04.499Z,21.83
2023-01-29T18:27:08.618Z,20.60
2023-01-29T18:29:10.217Z,21.73
2023-01-29T18:31:13.957Z,22.38
2023-01-29T18:33:16.511Z,22.83
2023-01-29T18:35:18.531Z,22.92
2023-01-29T18:37:20.629Z,26.48
2023-01-29T18:39:22.300Z,27.77
2023-01-29T18:41:24.048Z,23.15
2023-01-29T18:43:26.347Z,27.38
2023-01-29T18:45:29.109Z,29.08
2023-01-29T18:47:30.816Z,29.27
2023-01-29T18:49:32.567Z,29.38
2023-01-29T18:51:34.708Z,32.70
2023-01-29T18:53:36.371Z,29.98
2023-01-29T18:55:38.087Z,26.10
2023-01-29T18:58:28.983Z,23.77
2023-01-29T19:00:02.885Z,23.70
2023-01-29T19:02:04.606Z,25.08
2023-01-29T19:04:06.387Z,23.92
2023-01-29T19:06:09.878Z,22.40
2023-01-29T19:08:11.534Z,22.55
2023-01-29T19:10:13.227Z,20.58
2023-01-29T19:12:14.785Z,20.85
2023-01-29T19:14:16.372Z,20.33
2023-01-29T19:16:18.049Z,21.73
2023-01-29T19:18:20.524Z,20.77
2023-01-29T19:20:22.180Z,20.63
2023-01-29T19:22:24.040Z,21.48
2023-01-29T19:24:25.693Z,21.25
2023-01-29T19:26:27.381Z,22.42
2023-01-29T19:28:29.097Z,23.70
2023-01-29T19:30:30.802Z,25.90
2023-01-29T19:32:32.510Z,26.80
2023-01-29T19:34:34.351Z,27.25
2023-01-29T19:36:36.647Z,27.08
2023-01-29T19:38:38.942Z,30.23
2023-01-29T19:40:40.932Z,29.70
2023-01-29T19:42:42.580Z,29.02
2023-01-29T19:44:45.700Z,28.10
2023-01-29T19:46:47.459Z,30.13
2023-01-29T19:48:49.099Z,29.88
2023-01-29T19:50:53.975Z,31.10
2023-01-29T19:52:56.432Z,33.22
2023-01-29T19:54:58.211Z,34.22
2023-01-29T19:56:59.834Z,37.38
2023-01-29T19:59:01.483Z,42.33
2023-01-29T20:01:13.017Z,44.97
2023-01-29T20:03:14.851Z,47.92
2023-01-29T20:05:18.388Z,41.92
2023-01-29T20:09:21.734Z,38.90
2023-01-29T20:11:23.992Z,35.10
2023-01-29T20:13:25.618Z,30.05
2023-01-29T20:15:27.227Z,26.58
2023-01-29T20:17:29.028Z,25.10
2023-01-29T20:19:30.613Z,21.70
2023-01-29T20:21:32.350Z,20.48
2023-01-29T20:23:38.094Z,21.00
2023-01-29T20:25:40.594Z,19.38
2023-01-29T20:27:42.197Z,19.25
2023-01-29T20:29:45.393Z,18.98
2023-01-29T20:31:47.118Z,20.00
2023-01-29T20:33:48.832Z,19.73
2023-01-29T20:35:57.302Z,21.83
2023-01-29T20:37:59.205Z,23.05
2023-01-29T20:40:00.822Z,22.65
2023-01-29T20:42:02.472Z,21.52
2023-01-29T20:44:04.131Z,20.00
2023-01-29T20:46:05.954Z,18.95
2023-01-29T20:48:08.094Z,18.55
2023-01-29T20:50:13.147Z,19.60
2023-01-29T20:52:14.820Z,17.70
2023-01-29T20:54:16.543Z,17.00
2023-01-29T20:56:18.591Z,16.45
2023-01-29T20:58:33.961Z,17.25
2023-01-29T21:00:35.637Z,17.83
2023-01-29T21:02:37.288Z,16.75
2023-01-29T21:04:38.828Z,17.17
2023-01-29T21:06:40.443Z,17.63
2023-01-29T21:08:42.208Z,16.67
2023-01-29T21:10:45.258Z,16.77
2023-01-29T21:12:46.952Z,17.13
2023-01-29T21:14:48.538Z,15.80
2023-01-29T21:16:50.200Z,16.35
2023-01-29T21:18:55.243Z,18.75
2023-01-29T21:20:56.873Z,15.85
2023-01-29T21:22:58.547Z,15.20
2023-01-29T21:25:00.248Z,14.00
2023-01-29T21:27:01.831Z,14.10
2023-01-29T21:29:03.754Z,12.63
2023-01-29T21:31:11.079Z,13.80
2023-01-29T21:33:12.681Z,12.10
2023-01-29T21:35:15.140Z,13.60
2023-01-29T21:37:16.805Z,13.25
2023-01-29T21:39:20.649Z,12.45
2023-01-29T21:43:45.042Z,13.95
2023-01-29T21:45:46.631Z,13.27
2023-01-29T21:47:48.315Z,13.02
2023-01-29T21:49:49.966Z,13.32
2023-01-29T21:51:51.742Z,13.85
2023-01-29T21:53:53.351Z,14.52
2023-01-29T21:56:02.161Z,12.55
2023-01-29T21:58:04.417Z,13.27
2023-01-29T22:00:06.688Z,13.77
2023-01-29T22:02:14.020Z,14.88
2023-01-29T22:04:15.778Z,13.85
2023-01-29T22:06:17.420Z,14.98
2023-01-29T22:08:20.558Z,14.88
2023-01-29T22:10:22.544Z,17.35
2023-01-29T22:12:24.321Z,16.77
2023-01-29T22:14:26.140Z,17.50
2023-01-29T22:16:29.895Z,17.33
2023-01-29T22:18:31.665Z,18.40
2023-01-29T22:20:33.296Z,20.13
2023-01-29T22:22:34.977Z,19.65
2023-01-29T22:24:36.573Z,20.58
2023-01-29T22:26:38.237Z,23.05
2023-01-29T22:28:39.874Z,21.90
2023-01-29T22:30:41.688Z,21.60
2023-01-29T22:32:43.379Z,21.73
2023-01-29T22:34:44.951Z,20.88
2023-01-29T22:36:46.566Z,23.70
2023-01-29T22:38:48.153Z,22.02
2023-01-29T22:40:51.223Z,22.85
2023-01-29T22:42:52.858Z,22.88
2023-01-29T22:44:54.456Z,22.00
2023-01-29T22:46:56.261Z,22.83
2023-01-29T22:48:57.900Z,20.75
2023-01-29T22:51:13.755Z,21.77
2023-01-29T22:53:15.491Z,20.55
2023-01-29T22:55:17.545Z,22.00
2023-01-29T22:57:19.857Z,20.02
2023-01-29T22:59:21.653Z,20.52
2023-01-29T23:01:25.630Z,20.45
2023-01-29T23:03:27.291Z,16.20
2023-01-29T23:05:28.875Z,14.57
2023-01-29T23:07:30.480Z,15.48
2023-01-29T23:09:32.089Z,13.88
2023-01-29T23:11:33.879Z,14.00
2023-01-29T23:13:35.409Z,12.90
2023-01-29T23:15:36.960Z,13.20
2023-01-29T23:17:39.738Z,14.30
2023-01-29T23:19:41.300Z,14.70
2023-01-29T23:21:42.897Z,14.35
2023-01-29T23:23:45.180Z,12.75
2023-01-29T23:26:05.432Z,12.48
2023-01-29T23:28:07.048Z,13.15
2023-01-29T23:30:09.656Z,11.90
2023-01-29T23:32:13.231Z,12.75
2023-01-29T23:34:15.254Z,14.18
2023-01-29T23:36:17.157Z,13.15
2023-01-29T23:38:18.738Z,13.10
2023-01-29T23:40:20.372Z,14.48
2023-01-29T23:42:21.989Z,13.52
2023-01-29T23:44:23.750Z,13.07
2023-01-29T23:46:25.403Z,14.18
2023-01-29T23:48:27.026Z,13.27
2023-01-29T23:50:28.614Z,13.88
2023-01-29T23:52:30.251Z,12.57
2023-01-29T23:54:31.807Z,12.55
2023-01-29T23:56:33.365Z,13.73
2023-01-29T23:58:35.172Z,14.25
